sensor_id;sensor_type;location;lat;lon;timestamp;P1;durP1;ratioP1;P2;durP2;ratioP2
11394;SDS011;5753;54.402;10.220;2022-08-19T00:01:25;30.17;;;17.40;;
11394;SDS011;5753;54.402;10.220;2022-08-19T00:03:54;21.90;;;15.90;;
11394;SDS011;5753;54.402;10.220;2022-08-19T00:06:25;22.20;;;14.65;;
11394;SDS011;5753;54.402;10.220;2022-08-19T00:08:52;23.17;;;15.70;;
11394;SDS011;5753;54.402;10.220;2022-08-19T00:11:19;22.23;;;17.83;;
11394;SDS011;5753;54.402;10.220;2022-08-19T00:13:46;23.63;;;15.60;;
11394;SDS011;5753;54.402;10.220;2022-08-19T00:16:15;22.83;;;16.48;;
11394;SDS011;5753;54.402;10.220;2022-08-19T00:18:44;25.15;;;16.42;;
11394;SDS011;5753;54.402;10.220;2022-08-19T00:21:12;21.10;;;13.57;;
11394;SDS011;5753;54.402;10.220;2022-08-19T00:23:39;25.13;;;13.50;;
11394;SDS011;5753;54.402;10.220;2022-08-19T00:26:06;23.60;;;14.82;;
11394;SDS011;5753;54.402;10.220;2022-08-19T00:28:33;43.33;;;15.57;;
11394;SDS011;5753;54.402;10.220;2022-08-19T00:31:00;25.27;;;15.18;;
11394;SDS011;5753;54.402;10.220;2022-08-19T00:33:31;21.73;;;15.02;;
11394;SDS011;5753;54.402;10.220;2022-08-19T00:35:58;25.55;;;13.10;;
11394;SDS011;5753;54.402;10.220;2022-08-19T00:38:25;22.52;;;12.80;;
11394;SDS011;5753;54.402;10.220;2022-08-19T00:40:51;24.17;;;17.33;;
11394;SDS011;5753;54.402;10.220;2022-08-19T00:43:19;29.05;;;14.98;;
11394;SDS011;5753;54.402;10.220;2022-08-19T00:45:48;31.02;;;17.65;;
11394;SDS011;5753;54.402;10.220;2022-08-19T00:48:14;25.92;;;15.23;;
11394;SDS011;5753;54.402;10.220;2022-08-19T00:50:41;22.83;;;15.95;;
11394;SDS011;5753;54.402;10.220;2022-08-19T00:53:12;21.02;;;15.05;;
11394;SDS011;5753;54.402;10.220;2022-08-19T00:55:40;25.38;;;14.50;;
11394;SDS011;5753;54.402;10.220;2022-08-19T00:58:12;20.02;;;11.98;;
11394;SDS011;5753;54.402;10.220;2022-08-19T01:00:41;25.40;;;14.80;;
11394;SDS011;5753;54.402;10.220;2022-08-19T01:03:08;27.88;;;14.45;;
11394;SDS011;5753;54.402;10.220;2022-08-19T01:05:36;20.42;;;14.00;;
11394;SDS011;5753;54.402;10.220;2022-08-19T01:08:04;25.80;;;16.38;;
11394;SDS011;5753;54.402;10.220;2022-08-19T01:10:36;20.00;;;17.75;;
11394;SDS011;5753;54.402;10.220;2022-08-19T01:13:13;26.92;;;14.55;;
11394;SDS011;5753;54.402;10.220;2022-08-19T01:15:49;20.83;;;14.98;;
11394;SDS011;5753;54.402;10.220;2022-08-19T01:18:20;18.52;;;13.30;;
11394;SDS011;5753;54.402;10.220;2022-08-19T01:20:48;21.90;;;12.90;;
11394;SDS011;5753;54.402;10.220;2022-08-19T01:23:15;29.65;;;14.23;;
11394;SDS011;5753;54.402;10.220;2022-08-19T01:25:46;28.38;;;15.98;;
11394;SDS011;5753;54.402;10.220;2022-08-19T01:30:46;17.65;;;11.30;;
11394;SDS011;5753;54.402;10.220;2022-08-19T01:33:12;22.67;;;15.90;;
11394;SDS011;5753;54.402;10.220;2022-08-19T01:35:39;26.88;;;15.70;;
11394;SDS011;5753;54.402;10.220;2022-08-19T01:38:08;24.02;;;12.80;;
11394;SDS011;5753;54.402;10.220;2022-08-19T01:40:37;22.10;;;15.20;;
11394;SDS011;5753;54.402;10.220;2022-08-19T01:43:05;19.10;;;12.52;;
11394;SDS011;5753;54.402;10.220;2022-08-19T01:45:32;26.83;;;13.70;;
11394;SDS011;5753;54.402;10.220;2022-08-19T01:47:59;22.05;;;13.20;;
11394;SDS011;5753;54.402;10.220;2022-08-19T01:50:26;29.33;;;15.38;;
11394;SDS011;5753;54.402;10.220;2022-08-19T01:52:52;15.70;;;12.43;;
11394;SDS011;5753;54.402;10.220;2022-08-19T01:55:20;27.48;;;17.38;;
11394;SDS011;5753;54.402;10.220;2022-08-19T01:57:50;25.05;;;12.85;;
11394;SDS011;5753;54.402;10.220;2022-08-19T02:00:21;26.92;;;13.80;;
11394;SDS011;5753;54.402;10.220;2022-08-19T02:02:48;18.38;;;14.18;;
11394;SDS011;5753;54.402;10.220;2022-08-19T02:05:14;20.42;;;15.27;;
11394;SDS011;5753;54.402;10.220;2022-08-19T02:07:43;23.15;;;13.88;;
11394;SDS011;5753;54.402;10.220;2022-08-19T02:10:11;19.55;;;14.15;;
11394;SDS011;5753;54.402;10.220;2022-08-19T02:12:39;20.38;;;14.65;;
11394;SDS011;5753;54.402;10.220;2022-08-19T02:15:06;34.65;;;14.23;;
11394;SDS011;5753;54.402;10.220;2022-08-19T02:17:34;24.70;;;16.85;;
11394;SDS011;5753;54.402;10.220;2022-08-19T02:20:00;27.38;;;14.30;;
11394;SDS011;5753;54.402;10.220;2022-08-19T02:22:27;23.90;;;16.20;;
11394;SDS011;5753;54.402;10.220;2022-08-19T02:24:53;20.00;;;14.02;;
11394;SDS011;5753;54.402;10.220;2022-08-19T02:27:20;22.85;;;13.65;;
11394;SDS011;5753;54.402;10.220;2022-08-19T02:29:47;20.88;;;16.30;;
11394;SDS011;5753;54.402;10.220;2022-08-19T02:32:15;26.95;;;15.23;;
11394;SDS011;5753;54.402;10.220;2022-08-19T02:34:43;27.52;;;15.52;;
11394;SDS011;5753;54.402;10.220;2022-08-19T02:37:10;19.80;;;14.63;;
11394;SDS011;5753;54.402;10.220;2022-08-19T02:39:56;19.52;;;14.95;;
11394;SDS011;5753;54.402;10.220;2022-08-19T02:42:22;26.10;;;16.13;;
11394;SDS011;5753;54.402;10.220;2022-08-19T02:44:49;29.65;;;16.75;;
11394;SDS011;5753;54.402;10.220;2022-08-19T02:47:16;19.08;;;13.07;;
11394;SDS011;5753;54.402;10.220;2022-08-19T02:49:44;19.30;;;15.40;;
11394;SDS011;5753;54.402;10.220;2022-08-19T02:52:10;27.17;;;13.77;;
11394;SDS011;5753;54.402;10.220;2022-08-19T02:54:37;29.85;;;15.82;;
11394;SDS011;5753;54.402;10.220;2022-08-19T02:57:04;24.52;;;13.50;;
11394;SDS011;5753;54.402;10.220;2022-08-19T02:59:31;20.48;;;15.13;;
11394;SDS011;5753;54.402;10.220;2022-08-19T03:01:57;17.55;;;13.20;;
11394;SDS011;5753;54.402;10.220;2022-08-19T03:04:23;21.98;;;14.02;;
11394;SDS011;5753;54.402;10.220;2022-08-19T03:06:50;21.48;;;14.98;;
11394;SDS011;5753;54.402;10.220;2022-08-19T03:09:17;18.98;;;13.75;;
11394;SDS011;5753;54.402;10.220;2022-08-19T03:11:44;20.70;;;14.70;;
11394;SDS011;5753;54.402;10.220;2022-08-19T03:14:11;24.70;;;14.77;;
11394;SDS011;5753;54.402;10.220;2022-08-19T03:16:41;24.42;;;16.58;;
11394;SDS011;5753;54.402;10.220;2022-08-19T03:19:09;22.77;;;16.58;;
11394;SDS011;5753;54.402;10.220;2022-08-19T03:21:36;26.58;;;14.23;;
11394;SDS011;5753;54.402;10.220;2022-08-19T03:24:04;20.77;;;12.07;;
11394;SDS011;5753;54.402;10.220;2022-08-19T03:26:31;26.30;;;14.93;;
11394;SDS011;5753;54.402;10.220;2022-08-19T03:29:01;25.10;;;12.07;;
11394;SDS011;5753;54.402;10.220;2022-08-19T03:31:28;25.52;;;15.90;;
11394;SDS011;5753;54.402;10.220;2022-08-19T03:33:56;23.20;;;13.57;;
11394;SDS011;5753;54.402;10.220;2022-08-19T03:36:23;34.08;;;17.38;;
11394;SDS011;5753;54.402;10.220;2022-08-19T03:39:00;24.00;;;11.88;;
11394;SDS011;5753;54.402;10.220;2022-08-19T03:41:27;20.90;;;14.38;;
11394;SDS011;5753;54.402;10.220;2022-08-19T03:44:04;25.30;;;13.45;;
11394;SDS011;5753;54.402;10.220;2022-08-19T03:46:32;32.03;;;13.88;;
11394;SDS011;5753;54.402;10.220;2022-08-19T03:48:59;21.90;;;13.25;;
11394;SDS011;5753;54.402;10.220;2022-08-19T03:51:34;29.02;;;14.20;;
11394;SDS011;5753;54.402;10.220;2022-08-19T03:54:04;17.70;;;12.70;;
11394;SDS011;5753;54.402;10.220;2022-08-19T03:56:33;23.30;;;14.07;;
11394;SDS011;5753;54.402;10.220;2022-08-19T03:59:00;30.98;;;14.07;;
11394;SDS011;5753;54.402;10.220;2022-08-19T04:01:28;25.50;;;14.20;;
11394;SDS011;5753;54.402;10.220;2022-08-19T04:03:55;29.25;;;14.70;;
11394;SDS011;5753;54.402;10.220;2022-08-19T04:06:23;33.67;;;16.75;;
11394;SDS011;5753;54.402;10.220;2022-08-19T04:08:55;29.10;;;15.73;;
11394;SDS011;5753;54.402;10.220;2022-08-19T04:11:30;27.88;;;15.77;;
11394;SDS011;5753;54.402;10.220;2022-08-19T04:14:06;24.02;;;13.27;;
11394;SDS011;5753;54.402;10.220;2022-08-19T04:16:34;26.90;;;13.35;;
11394;SDS011;5753;54.402;10.220;2022-08-19T04:19:02;25.55;;;14.02;;
11394;SDS011;5753;54.402;10.220;2022-08-19T04:21:30;26.65;;;16.80;;
11394;SDS011;5753;54.402;10.220;2022-08-19T04:23:56;22.90;;;11.35;;
11394;SDS011;5753;54.402;10.220;2022-08-19T04:26:24;25.13;;;15.70;;
11394;SDS011;5753;54.402;10.220;2022-08-19T04:28:52;24.50;;;15.10;;
11394;SDS011;5753;54.402;10.220;2022-08-19T04:31:20;27.17;;;13.48;;
11394;SDS011;5753;54.402;10.220;2022-08-19T04:33:51;26.20;;;16.63;;
11394;SDS011;5753;54.402;10.220;2022-08-19T04:36:19;24.40;;;13.43;;
11394;SDS011;5753;54.402;10.220;2022-08-19T04:38:47;26.23;;;15.00;;
11394;SDS011;5753;54.402;10.220;2022-08-19T04:41:14;21.60;;;14.55;;
11394;SDS011;5753;54.402;10.220;2022-08-19T04:44:00;19.95;;;12.07;;
11394;SDS011;5753;54.402;10.220;2022-08-19T04:46:27;22.45;;;12.63;;
11394;SDS011;5753;54.402;10.220;2022-08-19T04:48:56;26.23;;;14.23;;
11394;SDS011;5753;54.402;10.220;2022-08-19T04:51:27;21.88;;;12.35;;
11394;SDS011;5753;54.402;10.220;2022-08-19T04:53:56;30.40;;;16.23;;
11394;SDS011;5753;54.402;10.220;2022-08-19T04:56:22;15.80;;;12.13;;
11394;SDS011;5753;54.402;10.220;2022-08-19T04:58:51;29.75;;;15.00;;
11394;SDS011;5753;54.402;10.220;2022-08-19T05:01:20;25.02;;;14.25;;
11394;SDS011;5753;54.402;10.220;2022-08-19T05:03:51;19.83;;;13.63;;
11394;SDS011;5753;54.402;10.220;2022-08-19T05:06:19;19.25;;;11.40;;
11394;SDS011;5753;54.402;10.220;2022-08-19T05:08:47;22.88;;;11.25;;
11394;SDS011;5753;54.402;10.220;2022-08-19T05:11:25;16.52;;;10.80;;
11394;SDS011;5753;54.402;10.220;2022-08-19T05:13:54;21.33;;;13.55;;
11394;SDS011;5753;54.402;10.220;2022-08-19T05:16:21;24.55;;;15.57;;
11394;SDS011;5753;54.402;10.220;2022-08-19T05:18:49;18.92;;;12.07;;
11394;SDS011;5753;54.402;10.220;2022-08-19T05:21:34;22.08;;;13.93;;
11394;SDS011;5753;54.402;10.220;2022-08-19T05:24:21;23.60;;;12.68;;
11394;SDS011;5753;54.402;10.220;2022-08-19T05:26:49;21.10;;;13.48;;
11394;SDS011;5753;54.402;10.220;2022-08-19T05:29:18;22.55;;;14.07;;
11394;SDS011;5753;54.402;10.220;2022-08-19T05:31:45;15.90;;;12.05;;
11394;SDS011;5753;54.402;10.220;2022-08-19T05:34:17;18.48;;;14.02;;
11394;SDS011;5753;54.402;10.220;2022-08-19T05:36:46;14.93;;;12.35;;
11394;SDS011;5753;54.402;10.220;2022-08-19T05:39:15;25.73;;;15.65;;
11394;SDS011;5753;54.402;10.220;2022-08-19T05:41:48;23.10;;;14.93;;
11394;SDS011;5753;54.402;10.220;2022-08-19T05:44:19;26.42;;;17.23;;
11394;SDS011;5753;54.402;10.220;2022-08-19T05:46:47;23.98;;;16.10;;
11394;SDS011;5753;54.402;10.220;2022-08-19T05:49:14;23.83;;;13.85;;
11394;SDS011;5753;54.402;10.220;2022-08-19T05:51:41;20.27;;;14.80;;
11394;SDS011;5753;54.402;10.220;2022-08-19T05:54:08;23.02;;;15.10;;
11394;SDS011;5753;54.402;10.220;2022-08-19T05:56:36;24.02;;;14.05;;
11394;SDS011;5753;54.402;10.220;2022-08-19T05:59:03;25.65;;;11.38;;
11394;SDS011;5753;54.402;10.220;2022-08-19T06:01:33;21.50;;;15.55;;
11394;SDS011;5753;54.402;10.220;2022-08-19T06:04:00;17.45;;;12.07;;
11394;SDS011;5753;54.402;10.220;2022-08-19T06:06:27;23.00;;;14.30;;
11394;SDS011;5753;54.402;10.220;2022-08-19T06:08:53;25.90;;;15.15;;
11394;SDS011;5753;54.402;10.220;2022-08-19T06:13:59;25.98;;;15.95;;
11394;SDS011;5753;54.402;10.220;2022-08-19T06:16:37;16.48;;;12.02;;
11394;SDS011;5753;54.402;10.220;2022-08-19T06:19:06;16.98;;;12.05;;
11394;SDS011;5753;54.402;10.220;2022-08-19T06:21:35;21.73;;;12.52;;
11394;SDS011;5753;54.402;10.220;2022-08-19T06:24:03;21.00;;;13.20;;
11394;SDS011;5753;54.402;10.220;2022-08-19T06:26:31;25.80;;;12.15;;
11394;SDS011;5753;54.402;10.220;2022-08-19T06:29:00;26.40;;;14.43;;
11394;SDS011;5753;54.402;10.220;2022-08-19T06:31:28;25.48;;;11.95;;
11394;SDS011;5753;54.402;10.220;2022-08-19T06:33:58;25.90;;;15.60;;
11394;SDS011;5753;54.402;10.220;2022-08-19T06:36:28;27.00;;;13.68;;
11394;SDS011;5753;54.402;10.220;2022-08-19T06:38:58;22.23;;;15.88;;
11394;SDS011;5753;54.402;10.220;2022-08-19T06:41:26;16.58;;;14.65;;
11394;SDS011;5753;54.402;10.220;2022-08-19T06:43:54;27.08;;;15.75;;
11394;SDS011;5753;54.402;10.220;2022-08-19T06:46:20;23.92;;;15.95;;
11394;SDS011;5753;54.402;10.220;2022-08-19T06:48:48;34.53;;;16.77;;
11394;SDS011;5753;54.402;10.220;2022-08-19T06:51:15;29.83;;;17.30;;
11394;SDS011;5753;54.402;10.220;2022-08-19T06:53:48;29.88;;;20.73;;
11394;SDS011;5753;54.402;10.220;2022-08-19T06:56:17;28.52;;;19.25;;
11394;SDS011;5753;54.402;10.220;2022-08-19T06:58:47;32.58;;;17.73;;
11394;SDS011;5753;54.402;10.220;2022-08-19T07:01:16;27.40;;;19.85;;
11394;SDS011;5753;54.402;10.220;2022-08-19T07:03:43;31.10;;;22.17;;
11394;SDS011;5753;54.402;10.220;2022-08-19T07:06:10;31.13;;;23.08;;
11394;SDS011;5753;54.402;10.220;2022-08-19T07:08:40;32.15;;;21.63;;
11394;SDS011;5753;54.402;10.220;2022-08-19T07:11:08;48.03;;;21.13;;
11394;SDS011;5753;54.402;10.220;2022-08-19T07:13:37;35.75;;;22.70;;
11394;SDS011;5753;54.402;10.220;2022-08-19T07:16:05;30.42;;;20.95;;
11394;SDS011;5753;54.402;10.220;2022-08-19T07:18:32;30.08;;;20.83;;
11394;SDS011;5753;54.402;10.220;2022-08-19T07:21:13;34.47;;;21.05;;
11394;SDS011;5753;54.402;10.220;2022-08-19T07:23:42;30.73;;;21.42;;
11394;SDS011;5753;54.402;10.220;2022-08-19T07:26:10;28.52;;;20.92;;
11394;SDS011;5753;54.402;10.220;2022-08-19T07:28:47;33.10;;;20.55;;
11394;SDS011;5753;54.402;10.220;2022-08-19T07:31:15;31.58;;;21.67;;
11394;SDS011;5753;54.402;10.220;2022-08-19T07:33:44;30.15;;;21.27;;
11394;SDS011;5753;54.402;10.220;2022-08-19T07:36:12;33.65;;;22.05;;
11394;SDS011;5753;54.402;10.220;2022-08-19T07:38:41;29.85;;;19.70;;
11394;SDS011;5753;54.402;10.220;2022-08-19T07:41:10;30.08;;;21.15;;
11394;SDS011;5753;54.402;10.220;2022-08-19T07:43:38;43.83;;;21.13;;
11394;SDS011;5753;54.402;10.220;2022-08-19T07:46:05;37.53;;;22.08;;
11394;SDS011;5753;54.402;10.220;2022-08-19T07:48:32;38.35;;;21.35;;
11394;SDS011;5753;54.402;10.220;2022-08-19T07:50:59;35.25;;;20.60;;
11394;SDS011;5753;54.402;10.220;2022-08-19T07:53:28;27.50;;;19.17;;
11394;SDS011;5753;54.402;10.220;2022-08-19T07:55:55;36.70;;;22.60;;
11394;SDS011;5753;54.402;10.220;2022-08-19T07:58:29;37.33;;;23.42;;
11394;SDS011;5753;54.402;10.220;2022-08-19T08:00:59;37.65;;;22.30;;
11394;SDS011;5753;54.402;10.220;2022-08-19T08:03:27;37.42;;;24.58;;
11394;SDS011;5753;54.402;10.220;2022-08-19T08:06:13;39.70;;;20.90;;
11394;SDS011;5753;54.402;10.220;2022-08-19T08:08:59;31.63;;;21.20;;
11394;SDS011;5753;54.402;10.220;2022-08-19T08:11:36;39.63;;;23.63;;
11394;SDS011;5753;54.402;10.220;2022-08-19T08:14:23;39.58;;;24.73;;
11394;SDS011;5753;54.402;10.220;2022-08-19T08:17:14;38.92;;;30.52;;
11394;SDS011;5753;54.402;10.220;2022-08-19T08:19:42;55.22;;;26.75;;
11394;SDS011;5753;54.402;10.220;2022-08-19T08:22:10;41.30;;;24.85;;
11394;SDS011;5753;54.402;10.220;2022-08-19T08:27:37;39.55;;;22.48;;
11394;SDS011;5753;54.402;10.220;2022-08-19T08:30:06;43.83;;;26.85;;
11394;SDS011;5753;54.402;10.220;2022-08-19T08:32:37;35.60;;;21.77;;
11394;SDS011;5753;54.402;10.220;2022-08-19T08:35:04;39.92;;;26.02;;
11394;SDS011;5753;54.402;10.220;2022-08-19T08:37:33;44.05;;;25.73;;
11394;SDS011;5753;54.402;10.220;2022-08-19T08:40:03;37.45;;;22.95;;
11394;SDS011;5753;54.402;10.220;2022-08-19T08:42:59;46.65;;;23.55;;
11394;SDS011;5753;54.402;10.220;2022-08-19T08:45:41;42.13;;;24.73;;
11394;SDS011;5753;54.402;10.220;2022-08-19T08:48:36;41.05;;;21.85;;
11394;SDS011;5753;54.402;10.220;2022-08-19T08:51:13;35.72;;;23.00;;
11394;SDS011;5753;54.402;10.220;2022-08-19T08:53:44;30.02;;;20.65;;
11394;SDS011;5753;54.402;10.220;2022-08-19T08:56:14;24.65;;;18.33;;
11394;SDS011;5753;54.402;10.220;2022-08-19T09:01:35;36.30;;;19.13;;
11394;SDS011;5753;54.402;10.220;2022-08-19T09:04:05;30.60;;;17.52;;
11394;SDS011;5753;54.402;10.220;2022-08-19T09:06:49;27.17;;;14.98;;
11394;SDS011;5753;54.402;10.220;2022-08-19T09:09:38;22.13;;;15.00;;
11394;SDS011;5753;54.402;10.220;2022-08-19T09:15:04;25.45;;;15.60;;
11394;SDS011;5753;54.402;10.220;2022-08-19T09:17:33;17.70;;;14.07;;
11394;SDS011;5753;54.402;10.220;2022-08-19T09:20:05;19.55;;;14.60;;
11394;SDS011;5753;54.402;10.220;2022-08-19T09:22:36;17.10;;;13.13;;
11394;SDS011;5753;54.402;10.220;2022-08-19T09:25:04;25.58;;;13.40;;
11394;SDS011;5753;54.402;10.220;2022-08-19T09:27:32;21.98;;;12.80;;
11394;SDS011;5753;54.402;10.220;2022-08-19T09:30:01;23.05;;;15.73;;
11394;SDS011;5753;54.402;10.220;2022-08-19T09:32:27;20.98;;;14.93;;
11394;SDS011;5753;54.402;10.220;2022-08-19T09:34:53;26.35;;;13.73;;
11394;SDS011;5753;54.402;10.220;2022-08-19T09:37:20;20.45;;;13.77;;
11394;SDS011;5753;54.402;10.220;2022-08-19T09:39:47;21.17;;;15.15;;
11394;SDS011;5753;54.402;10.220;2022-08-19T09:42:13;21.75;;;12.85;;
11394;SDS011;5753;54.402;10.220;2022-08-19T09:44:40;27.00;;;17.00;;
11394;SDS011;5753;54.402;10.220;2022-08-19T09:47:07;22.42;;;15.48;;
11394;SDS011;5753;54.402;10.220;2022-08-19T09:49:34;23.23;;;16.80;;
11394;SDS011;5753;54.402;10.220;2022-08-19T09:52:01;24.75;;;15.05;;
11394;SDS011;5753;54.402;10.220;2022-08-19T09:54:27;34.47;;;17.08;;
11394;SDS011;5753;54.402;10.220;2022-08-19T09:56:53;19.65;;;14.07;;
11394;SDS011;5753;54.402;10.220;2022-08-19T09:59:22;21.85;;;15.18;;
11394;SDS011;5753;54.402;10.220;2022-08-19T10:01:49;26.15;;;16.38;;
11394;SDS011;5753;54.402;10.220;2022-08-19T10:04:16;23.33;;;14.27;;
11394;SDS011;5753;54.402;10.220;2022-08-19T10:06:42;21.50;;;14.98;;
11394;SDS011;5753;54.402;10.220;2022-08-19T10:09:09;20.08;;;14.13;;
11394;SDS011;5753;54.402;10.220;2022-08-19T10:11:36;18.95;;;15.98;;
11394;SDS011;5753;54.402;10.220;2022-08-19T10:14:05;28.83;;;15.30;;
11394;SDS011;5753;54.402;10.220;2022-08-19T10:16:32;19.90;;;14.27;;
11394;SDS011;5753;54.402;10.220;2022-08-19T10:19:00;23.35;;;14.65;;
11394;SDS011;5753;54.402;10.220;2022-08-19T10:21:28;16.95;;;13.20;;
11394;SDS011;5753;54.402;10.220;2022-08-19T10:23:57;19.38;;;13.88;;
11394;SDS011;5753;54.402;10.220;2022-08-19T10:26:26;25.00;;;15.73;;
11394;SDS011;5753;54.402;10.220;2022-08-19T10:28:54;20.40;;;15.32;;
11394;SDS011;5753;54.402;10.220;2022-08-19T10:31:22;21.27;;;15.00;;
11394;SDS011;5753;54.402;10.220;2022-08-19T10:33:50;24.70;;;14.80;;
11394;SDS011;5753;54.402;10.220;2022-08-19T10:36:23;23.45;;;17.25;;
11394;SDS011;5753;54.402;10.220;2022-08-19T10:38:51;22.98;;;15.77;;
11394;SDS011;5753;54.402;10.220;2022-08-19T10:41:20;28.55;;;14.88;;
11394;SDS011;5753;54.402;10.220;2022-08-19T10:43:52;21.52;;;16.95;;
11394;SDS011;5753;54.402;10.220;2022-08-19T10:46:20;24.90;;;14.75;;
11394;SDS011;5753;54.402;10.220;2022-08-19T10:48:48;17.95;;;14.05;;
11394;SDS011;5753;54.402;10.220;2022-08-19T10:51:15;29.88;;;16.58;;
11394;SDS011;5753;54.402;10.220;2022-08-19T10:54:00;24.90;;;17.88;;
11394;SDS011;5753;54.402;10.220;2022-08-19T10:56:27;26.88;;;15.40;;
11394;SDS011;5753;54.402;10.220;2022-08-19T10:59:13;27.20;;;16.85;;
11394;SDS011;5753;54.402;10.220;2022-08-19T11:01:40;21.10;;;16.35;;
11394;SDS011;5753;54.402;10.220;2022-08-19T11:04:07;25.98;;;17.58;;
11394;SDS011;5753;54.402;10.220;2022-08-19T11:06:36;29.40;;;18.67;;
11394;SDS011;5753;54.402;10.220;2022-08-19T11:09:03;29.35;;;17.95;;
11394;SDS011;5753;54.402;10.220;2022-08-19T11:11:30;27.40;;;17.77;;
11394;SDS011;5753;54.402;10.220;2022-08-19T11:13:57;28.60;;;17.40;;
11394;SDS011;5753;54.402;10.220;2022-08-19T11:16:25;32.45;;;19.63;;
11394;SDS011;5753;54.402;10.220;2022-08-19T11:18:53;28.83;;;15.68;;
11394;SDS011;5753;54.402;10.220;2022-08-19T11:23:57;32.10;;;17.25;;
11394;SDS011;5753;54.402;10.220;2022-08-19T11:26:26;29.13;;;19.88;;
11394;SDS011;5753;54.402;10.220;2022-08-19T11:28:54;35.22;;;19.58;;
11394;SDS011;5753;54.402;10.220;2022-08-19T11:31:24;25.42;;;16.33;;
11394;SDS011;5753;54.402;10.220;2022-08-19T11:33:59;29.10;;;15.60;;
11394;SDS011;5753;54.402;10.220;2022-08-19T11:36:28;32.13;;;19.20;;
11394;SDS011;5753;54.402;10.220;2022-08-19T11:38:54;24.42;;;15.82;;
11394;SDS011;5753;54.402;10.220;2022-08-19T11:41:21;30.05;;;17.55;;
11394;SDS011;5753;54.402;10.220;2022-08-19T11:43:49;23.77;;;16.52;;
11394;SDS011;5753;54.402;10.220;2022-08-19T11:46:17;24.80;;;14.90;;
11394;SDS011;5753;54.402;10.220;2022-08-19T11:48:44;25.58;;;15.55;;
11394;SDS011;5753;54.402;10.220;2022-08-19T11:51:11;25.90;;;14.15;;
11394;SDS011;5753;54.402;10.220;2022-08-19T11:53:39;22.33;;;13.52;;
11394;SDS011;5753;54.402;10.220;2022-08-19T11:56:06;18.45;;;13.45;;
11394;SDS011;5753;54.402;10.220;2022-08-19T11:58:33;17.80;;;12.63;;
11394;SDS011;5753;54.402;10.220;2022-08-19T12:01:00;22.25;;;14.02;;
11394;SDS011;5753;54.402;10.220;2022-08-19T12:03:26;16.27;;;12.40;;
11394;SDS011;5753;54.402;10.220;2022-08-19T12:05:53;22.92;;;13.02;;
11394;SDS011;5753;54.402;10.220;2022-08-19T12:08:19;17.65;;;10.82;;
11394;SDS011;5753;54.402;10.220;2022-08-19T12:10:45;17.98;;;12.23;;
11394;SDS011;5753;54.402;10.220;2022-08-19T12:13:12;15.48;;;13.43;;
11394;SDS011;5753;54.402;10.220;2022-08-19T12:15:43;19.48;;;14.57;;
11394;SDS011;5753;54.402;10.220;2022-08-19T12:18:10;21.85;;;13.75;;
11394;SDS011;5753;54.402;10.220;2022-08-19T12:20:39;21.25;;;14.98;;
11394;SDS011;5753;54.402;10.220;2022-08-19T12:23:07;27.20;;;16.92;;
11394;SDS011;5753;54.402;10.220;2022-08-19T12:25:35;23.52;;;15.00;;
11394;SDS011;5753;54.402;10.220;2022-08-19T12:28:02;23.33;;;16.10;;
11394;SDS011;5753;54.402;10.220;2022-08-19T12:30:29;20.48;;;14.75;;
11394;SDS011;5753;54.402;10.220;2022-08-19T12:32:55;13.77;;;12.18;;
11394;SDS011;5753;54.402;10.220;2022-08-19T12:35:21;21.90;;;12.80;;
11394;SDS011;5753;54.402;10.220;2022-08-19T12:37:47;22.13;;;13.88;;
11394;SDS011;5753;54.402;10.220;2022-08-19T12:40:17;20.65;;;16.15;;
11394;SDS011;5753;54.402;10.220;2022-08-19T12:42:43;29.58;;;17.02;;
11394;SDS011;5753;54.402;10.220;2022-08-19T12:45:11;26.02;;;16.02;;
11394;SDS011;5753;54.402;10.220;2022-08-19T12:47:38;23.50;;;15.27;;
11394;SDS011;5753;54.402;10.220;2022-08-19T12:50:05;22.42;;;15.38;;
11394;SDS011;5753;54.402;10.220;2022-08-19T12:52:34;19.83;;;12.18;;
11394;SDS011;5753;54.402;10.220;2022-08-19T12:55:06;17.67;;;13.35;;
11394;SDS011;5753;54.402;10.220;2022-08-19T12:57:33;22.88;;;13.25;;
11394;SDS011;5753;54.402;10.220;2022-08-19T13:00:21;22.48;;;14.13;;
11394;SDS011;5753;54.402;10.220;2022-08-19T13:02:49;21.67;;;14.48;;
11394;SDS011;5753;54.402;10.220;2022-08-19T13:05:21;20.80;;;16.40;;
11394;SDS011;5753;54.402;10.220;2022-08-19T13:07:50;19.80;;;15.00;;
11394;SDS011;5753;54.402;10.220;2022-08-19T13:10:19;24.90;;;14.00;;
11394;SDS011;5753;54.402;10.220;2022-08-19T13:12:47;18.83;;;13.02;;
11394;SDS011;5753;54.402;10.220;2022-08-19T13:15:15;16.40;;;14.10;;
11394;SDS011;5753;54.402;10.220;2022-08-19T13:17:47;23.45;;;13.50;;
11394;SDS011;5753;54.402;10.220;2022-08-19T13:20:14;19.48;;;13.68;;
11394;SDS011;5753;54.402;10.220;2022-08-19T13:22:43;18.10;;;14.05;;
11394;SDS011;5753;54.402;10.220;2022-08-19T13:25:11;23.25;;;16.17;;
11394;SDS011;5753;54.402;10.220;2022-08-19T13:27:38;20.83;;;15.23;;
11394;SDS011;5753;54.402;10.220;2022-08-19T13:30:07;21.45;;;15.43;;
11394;SDS011;5753;54.402;10.220;2022-08-19T13:32:53;22.58;;;15.30;;
11394;SDS011;5753;54.402;10.220;2022-08-19T13:35:38;25.63;;;16.92;;
11394;SDS011;5753;54.402;10.220;2022-08-19T13:38:16;22.52;;;16.10;;
11394;SDS011;5753;54.402;10.220;2022-08-19T13:40:45;20.85;;;16.25;;
11394;SDS011;5753;54.402;10.220;2022-08-19T13:43:12;27.50;;;15.32;;
11394;SDS011;5753;54.402;10.220;2022-08-19T13:45:40;15.90;;;14.15;;
11394;SDS011;5753;54.402;10.220;2022-08-19T13:48:06;14.23;;;10.52;;
11394;SDS011;5753;54.402;10.220;2022-08-19T13:50:33;16.75;;;14.18;;
11394;SDS011;5753;54.402;10.220;2022-08-19T13:53:03;17.10;;;11.48;;
11394;SDS011;5753;54.402;10.220;2022-08-19T13:55:30;13.30;;;10.20;;
11394;SDS011;5753;54.402;10.220;2022-08-19T13:57:57;10.85;;;9.75;;
11394;SDS011;5753;54.402;10.220;2022-08-19T14:00:28;12.75;;;11.23;;
11394;SDS011;5753;54.402;10.220;2022-08-19T14:02:57;14.20;;;11.13;;
11394;SDS011;5753;54.402;10.220;2022-08-19T14:05:24;14.65;;;12.25;;
11394;SDS011;5753;54.402;10.220;2022-08-19T14:07:52;19.05;;;12.30;;
11394;SDS011;5753;54.402;10.220;2022-08-19T14:10:19;16.70;;;11.95;;
11394;SDS011;5753;54.402;10.220;2022-08-19T14:12:46;16.00;;;11.35;;
11394;SDS011;5753;54.402;10.220;2022-08-19T14:15:12;16.38;;;11.23;;
11394;SDS011;5753;54.402;10.220;2022-08-19T14:17:40;14.20;;;10.98;;
11394;SDS011;5753;54.402;10.220;2022-08-19T14:20:09;13.40;;;11.70;;
11394;SDS011;5753;54.402;10.220;2022-08-19T14:22:37;21.98;;;11.52;;
11394;SDS011;5753;54.402;10.220;2022-08-19T14:25:10;15.75;;;12.13;;
11394;SDS011;5753;54.402;10.220;2022-08-19T14:27:39;24.45;;;15.80;;
11394;SDS011;5753;54.402;10.220;2022-08-19T14:30:08;22.52;;;15.40;;
11394;SDS011;5753;54.402;10.220;2022-08-19T14:32:36;18.83;;;14.32;;
11394;SDS011;5753;54.402;10.220;2022-08-19T14:35:02;14.63;;;11.30;;
11394;SDS011;5753;54.402;10.220;2022-08-19T14:37:29;18.50;;;13.82;;
11394;SDS011;5753;54.402;10.220;2022-08-19T14:39:55;17.23;;;15.40;;
11394;SDS011;5753;54.402;10.220;2022-08-19T14:42:21;14.60;;;12.43;;
11394;SDS011;5753;54.402;10.220;2022-08-19T14:44:47;23.52;;;15.13;;
11394;SDS011;5753;54.402;10.220;2022-08-19T14:47:14;22.05;;;15.82;;
11394;SDS011;5753;54.402;10.220;2022-08-19T14:49:40;16.98;;;13.73;;